Time;durP1;ratioP1;P1;durP2;ratioP2;P2;SDS_P1;SDS_P2;PMS_P1;PMS_P2;Temp;Humidity;BMP_temperature;BMP_pressure;BME280_temperature;BME280_humidity;BME280_pressure;Samples;Min_cycle;Max_cycle;Signal;HPM_P1;HPM_P2
2022/07/17 00:00:48;;;;;;;9.40;4.75;;;614.80;2176.00;;;;;;4959653;28;20030;-80
2022/07/17 00:03:16;;;;;;;9.05;5.22;;;614.70;2252.80;;;;;;4959439;28;20386;-77
2022/07/17 00:05:43;;;;;;;7.65;3.75;;;614.50;2227.20;;;;;;4959097;28;20037;-82
2022/07/17 00:08:10;;;;;;;7.20;3.72;;;614.50;2227.20;;;;;;4959402;28;20031;-77
2022/07/17 00:10:38;;;;;;;6.15;4.10;;;614.40;2227.20;;;;;;4959211;28;20027;-79
2022/07/17 00:13:05;;;;;;;8.93;4.05;;;614.40;2278.40;;;;;;4976667;28;20031;-79
2022/07/17 00:15:31;;;;;;;7.50;3.80;;;614.40;2278.40;;;;;;4959762;28;20542;-78
2022/07/17 00:17:57;;;;;;;11.00;4.35;;;614.40;2278.40;;;;;;4959364;28;20078;-79
2022/07/17 00:20:25;;;;;;;6.57;3.60;;;614.40;2304.00;;;;;;4959814;28;20030;-79
2022/07/17 00:22:52;;;;;;;6.65;3.92;;;614.40;2278.40;;;;;;4959359;28;20042;-77
2022/07/17 00:25:18;;;;;;;10.68;4.20;;;614.50;2278.40;;;;;;4959438;28;20118;-79
2022/07/17 00:27:43;;;;;;;7.50;3.70;;;614.40;2252.80;;;;;;4959469;28;20069;-78
2022/07/17 00:30:10;;;;;;;10.85;3.45;;;589.70;2252.80;;;;;;4959405;28;20537;-79
2022/07/17 00:32:36;;;;;;;8.13;3.42;;;614.90;2227.20;;;;;;4959712;28;20379;-80
2022/07/17 00:35:02;;;;;;;6.28;4.00;;;614.40;2227.20;;;;;;4960660;28;20104;-79
2022/07/17 00:37:32;;;;;;;8.32;3.47;;;589.70;2227.20;;;;;;4960586;28;20070;-81
2022/07/17 00:39:58;;;;;;;6.40;3.90;;;589.70;2227.20;;;;;;4959803;28;20023;-84
2022/07/17 00:42:24;;;;;;;7.65;4.10;;;589.60;2252.80;;;;;;4959832;28;20038;-81
2022/07/17 00:44:50;;;;;;;12.07;3.70;;;589.60;2252.80;;;;;;4959821;28;20035;-81
2022/07/17 00:47:20;;;;;;;9.77;3.63;;;589.50;2252.80;;;;;;4959867;28;20085;-81
2022/07/17 00:49:49;;;;;;;11.18;3.97;;;589.40;2252.80;;;;;;4960217;28;20031;-80
2022/07/17 00:52:17;;;;;;;5.97;3.13;;;589.40;2278.40;;;;;;4959102;28;20037;-83
2022/07/17 00:54:44;;;;;;;6.10;3.80;;;589.40;2278.40;;;;;;4959563;28;20387;-80
2022/07/17 00:57:13;;;;;;;7.28;3.40;;;589.50;2252.80;;;;;;4955837;29;20047;-86
2022/07/17 00:59:40;;;;;;;14.73;3.70;;;589.50;2252.80;;;;;;4956478;29;20491;-80
2022/07/17 01:02:11;;;;;;;7.55;4.13;;;589.50;2278.40;;;;;;4955972;28;20042;-81
2022/07/17 01:04:38;;;;;;;8.02;3.58;;;589.50;2278.40;;;;;;4956234;29;20031;-80
2022/07/17 01:07:05;;;;;;;6.85;3.75;;;589.40;2278.40;;;;;;4955712;29;20027;-82
2022/07/17 01:09:32;;;;;;;8.05;3.70;;;589.30;2278.40;;;;;;4956009;29;20114;-81
2022/07/17 01:11:58;;;;;;;5.45;3.75;;;589.20;2278.40;;;;;;4955764;29;20031;-79
2022/07/17 01:14:25;;;;;;;8.07;3.80;;;589.20;2278.40;;;;;;4955941;29;20460;-81
2022/07/17 01:16:52;;;;;;;7.05;3.65;;;589.20;2278.40;;;;;;4956194;29;20476;-81
2022/07/17 01:19:19;;;;;;;6.72;3.40;;;589.20;2278.40;;;;;;4955850;29;20058;-82
2022/07/17 01:21:50;;;;;;;11.07;3.90;;;589.30;2304.00;;;;;;4955894;29;20096;-81
2022/07/17 01:24:17;;;;;;;7.22;3.67;;;589.10;2304.00;;;;;;4956030;29;20101;-82
2022/07/17 01:26:44;;;;;;;7.88;3.78;;;589.10;2304.00;;;;;;4955647;29;20031;-81
2022/07/17 01:29:12;;;;;;;8.50;3.88;;;588.80;2304.00;;;;;;4955622;29;20027;-78
2022/07/17 01:31:42;;;;;;;6.00;3.35;;;588.80;2329.60;;;;;;4956609;29;20498;-81
2022/07/17 01:34:09;;;;;;;7.80;4.07;;;588.80;2304.00;;;;;;4955368;29;20039;-81
2022/07/17 01:36:36;;;;;;;9.85;4.40;;;588.90;2304.00;;;;;;4955384;29;20031;-82
2022/07/17 01:39:03;;;;;;;6.35;3.55;;;589.00;2329.60;;;;;;4955381;29;20471;-81
2022/07/17 01:41:29;;;;;;;6.40;3.53;;;589.00;2329.60;;;;;;4956418;28;20035;-80
2022/07/17 01:43:55;;;;;;;7.35;3.50;;;589.10;2304.00;;;;;;4955502;29;20403;-82
2022/07/17 01:46:22;;;;;;;5.20;3.17;;;589.30;2278.40;;;;;;4955148;29;20031;-82
2022/07/17 01:48:47;;;;;;;6.50;3.50;;;589.10;2278.40;;;;;;4955031;29;20066;-81
2022/07/17 01:51:13;;;;;;;5.97;3.80;;;589.00;2278.40;;;;;;4955119;29;20038;-81
2022/07/17 01:53:39;;;;;;;11.00;5.18;;;589.10;2304.00;;;;;;4955051;29;20490;-77
2022/07/17 01:56:05;;;;;;;6.13;3.38;;;589.20;2278.40;;;;;;4956300;29;20479;-79
2022/07/17 01:58:31;;;;;;;5.28;3.53;;;589.20;2252.80;;;;;;4960137;29;20073;-79
2022/07/17 02:00:57;;;;;;;7.13;3.97;;;589.30;2278.40;;;;;;4960076;29;20100;-76
2022/07/17 02:03:22;;;;;;;6.13;3.85;;;589.20;2329.60;;;;;;4960785;29;20098;-77
2022/07/17 02:05:48;;;;;;;7.32;3.92;;;588.80;2355.20;;;;;;4965023;29;20054;-74
2022/07/17 02:08:14;;;;;;;10.55;4.75;;;564.10;2380.80;;;;;;4966478;29;20082;-74
2022/07/17 02:10:40;;;;;;;8.52;4.05;;;564.10;2355.20;;;;;;4967000;29;20038;-75
2022/07/17 02:13:06;;;;;;;7.03;3.85;;;588.80;2355.20;;;;;;4961067;29;20379;-78
2022/07/17 02:15:32;;;;;;;5.88;3.78;;;588.80;2329.60;;;;;;4955550;28;20034;-78
2022/07/17 02:17:58;;;;;;;7.15;4.00;;;588.80;2329.60;;;;;;4955674;29;20031;-79
2022/07/17 02:20:24;;;;;;;6.88;3.83;;;564.10;2355.20;;;;;;4955035;29;20062;-85
2022/07/17 02:22:51;;;;;;;9.60;3.55;;;564.10;2329.60;;;;;;4954364;29;20043;-79
2022/07/17 02:25:16;;;;;;;6.30;4.05;;;588.80;2355.20;;;;;;4954730;29;20034;-81
2022/07/17 02:27:43;;;;;;;9.00;3.92;;;564.10;2355.20;;;;;;4954748;29;20027;-79
2022/07/17 02:30:12;;;;;;;5.78;4.13;;;564.10;2355.20;;;;;;4954574;29;20023;-81
2022/07/17 02:32:38;;;;;;;7.55;4.28;;;564.10;2355.20;;;;;;4954724;29;20035;-77
2022/07/17 02:35:05;;;;;;;5.75;3.63;;;564.10;2355.20;;;;;;4954487;29;20031;-80
2022/07/17 02:37:31;;;;;;;6.68;3.35;;;564.10;2329.60;;;;;;4954320;29;20023;-79
2022/07/17 02:39:58;;;;;;;8.35;3.53;;;564.00;2329.60;;;;;;4955602;29;20034;-79
2022/07/17 02:42:27;;;;;;;9.07;3.58;;;588.80;2304.00;;;;;;4954321;29;20031;-80
2022/07/17 02:44:54;;;;;;;7.25;3.53;;;564.00;2304.00;;;;;;4954150;29;20054;-78
2022/07/17 02:47:28;;;;;;;7.53;3.70;;;564.00;2304.00;;;;;;4954480;29;20031;-78
2022/07/17 02:49:55;;;;;;;7.63;3.85;;;564.00;2329.60;;;;;;4954050;29;20032;-79
2022/07/17 02:52:21;;;;;;;6.43;3.55;;;564.00;2329.60;;;;;;4954538;29;20114;-78
2022/07/17 02:54:47;;;;;;;5.97;3.47;;;564.00;2329.60;;;;;;4954465;29;20122;-80
2022/07/17 02:57:13;;;;;;;8.27;4.13;;;564.00;2355.20;;;;;;4953794;29;20048;-80
2022/07/17 02:59:39;;;;;;;5.18;3.50;;;563.90;2355.20;;;;;;4954521;29;20035;-83
2022/07/17 03:02:05;;;;;;;8.27;3.65;;;563.80;2355.20;;;;;;4954244;29;20067;-80
2022/07/17 03:04:31;;;;;;;7.47;4.05;;;563.80;2355.20;;;;;;4953966;29;20118;-81
2022/07/17 03:06:56;;;;;;;7.22;4.20;;;563.80;2380.80;;;;;;4954281;29;20162;-81
2022/07/17 03:09:22;;;;;;;11.98;4.10;;;563.50;2406.40;;;;;;4954134;29;20031;-81
2022/07/17 03:11:48;;;;;;;7.07;3.80;;;563.40;2432.00;;;;;;4954087;29;20035;-79
2022/07/17 03:14:14;;;;;;;6.40;3.80;;;563.40;2432.00;;;;;;4954219;29;20027;-77
2022/07/17 03:16:40;;;;;;;7.97;4.20;;;563.40;2432.00;;;;;;4954080;29;20082;-78
2022/07/17 03:19:06;;;;;;;9.43;4.20;;;563.40;2432.00;;;;;;4953911;29;20088;-79
2022/07/17 03:21:31;;;;;;;6.28;4.00;;;563.30;2432.00;;;;;;4954089;29;20447;-79
2022/07/17 03:23:57;;;;;;;7.93;4.63;;;563.20;2432.00;;;;;;4954118;29;20122;-79
2022/07/17 03:26:23;;;;;;;8.13;4.28;;;563.20;2432.00;;;;;;4954940;28;20042;-78
2022/07/17 03:28:49;;;;;;;7.30;3.95;;;563.20;2432.00;;;;;;4957774;29;20031;-77
2022/07/17 03:31:14;;;;;;;6.00;3.65;;;538.40;2406.40;;;;;;4957637;29;20549;-78
2022/07/17 03:33:40;;;;;;;6.03;4.05;;;538.50;2406.40;;;;;;4957305;29;20086;-79
2022/07/17 03:36:06;;;;;;;4.75;3.60;;;538.40;2406.40;;;;;;4957721;29;20055;-79
2022/07/17 03:38:33;;;;;;;6.50;4.00;;;538.20;2406.40;;;;;;4957419;29;20023;-78
2022/07/17 03:40:58;;;;;;;8.55;3.90;;;538.40;2406.40;;;;;;4957246;29;20098;-79
2022/07/17 03:43:24;;;;;;;8.07;4.30;;;538.40;2406.40;;;;;;4961864;29;20035;-78
2022/07/17 03:45:50;;;;;;;7.18;3.97;;;538.40;2406.40;;;;;;4962719;29;20035;-78
2022/07/17 03:48:17;;;;;;;9.00;4.00;;;538.50;2406.40;;;;;;4957501;29;20027;-77
2022/07/17 03:50:42;;;;;;;9.00;4.22;;;563.20;2432.00;;;;;;4957268;29;20033;-82
2022/07/17 03:53:08;;;;;;;6.32;4.32;;;538.40;2406.40;;;;;;4957108;29;20027;-78
2022/07/17 03:55:34;;;;;;;6.93;4.63;;;538.50;2406.40;;;;;;4957227;29;20032;-81
2022/07/17 03:58:00;;;;;;;6.10;3.90;;;538.50;2406.40;;;;;;4957013;29;20407;-83
2022/07/17 04:00:26;;;;;;;9.82;4.60;;;538.50;2406.40;;;;;;4956876;29;20357;-78
2022/07/17 04:02:52;;;;;;;7.90;5.03;;;538.50;2406.40;;;;;;4957060;29;20071;-76
2022/07/17 04:05:18;;;;;;;7.15;4.47;;;538.30;2406.40;;;;;;4956881;29;20031;-81
2022/07/17 04:07:44;;;;;;;8.45;4.57;;;538.10;2406.40;;;;;;4956745;29;20450;-81
2022/07/17 04:10:12;;;;;;;7.63;4.93;;;538.20;2406.40;;;;;;4956888;29;20034;-80
2022/07/17 04:12:38;;;;;;;8.75;5.00;;;538.20;2406.40;;;;;;4956756;29;20082;-80
2022/07/17 04:15:05;;;;;;;9.38;4.75;;;563.30;2432.00;;;;;;4956624;29;20090;-79
2022/07/17 04:17:32;;;;;;;7.93;4.35;;;538.00;2406.40;;;;;;4956902;29;20027;-82
2022/07/17 04:19:57;;;;;;;7.93;4.22;;;538.10;2406.40;;;;;;4956772;29;20035;-78
2022/07/17 04:22:23;;;;;;;8.23;4.20;;;538.10;2406.40;;;;;;4956406;29;20031;-80
2022/07/17 04:24:50;;;;;;;8.10;4.35;;;538.30;2406.40;;;;;;4956746;29;20387;-76
2022/07/17 04:27:16;;;;;;;6.53;4.07;;;538.30;2406.40;;;;;;4957283;29;20034;-81
2022/07/17 04:29:42;;;;;;;6.90;4.25;;;538.40;2406.40;;;;;;4956531;29;20027;-78
2022/07/17 04:32:08;;;;;;;7.68;4.70;;;538.30;2406.40;;;;;;4957174;29;20491;-78
2022/07/17 04:34:34;;;;;;;7.47;4.70;;;538.10;2406.40;;;;;;4958161;29;20403;-77
2022/07/17 04:37:01;;;;;;;6.88;4.63;;;538.20;2406.40;;;;;;4957781;28;20031;-80
2022/07/17 04:39:27;;;;;;;11.68;5.13;;;538.20;2406.40;;;;;;4956627;29;20028;-82
2022/07/17 04:41:53;;;;;;;8.70;4.22;;;538.40;2406.40;;;;;;4956316;29;20090;-78
2022/07/17 04:44:19;;;;;;;6.78;4.80;;;538.30;2406.40;;;;;;4956199;29;20032;-83
2022/07/17 04:46:45;;;;;;;7.15;4.78;;;538.40;2406.40;;;;;;4956297;29;20027;-81
2022/07/17 04:49:11;;;;;;;6.00;4.35;;;538.50;2406.40;;;;;;4956021;29;20039;-78
2022/07/17 04:51:37;;;;;;;9.80;4.85;;;538.50;2406.40;;;;;;4956218;29;20031;-81
2022/07/17 04:54:03;;;;;;;10.55;4.55;;;563.30;2432.00;;;;;;4955897;29;20031;-78
2022/07/17 04:56:29;;;;;;;10.10;5.00;;;563.60;2432.00;;;;;;4955959;29;20032;-81
2022/07/17 04:58:55;;;;;;;6.82;4.72;;;563.40;2432.00;;;;;;4953679;29;20051;-79
2022/07/17 05:01:21;;;;;;;11.02;5.45;;;563.30;2432.00;;;;;;4956243;29;20031;-79
2022/07/17 05:03:46;;;;;;;10.48;4.80;;;563.30;2432.00;;;;;;4958463;29;20038;-78
2022/07/17 05:06:12;;;;;;;10.02;5.95;;;563.40;2432.00;;;;;;4960165;29;20023;-77
2022/07/17 05:08:38;;;;;;;9.20;5.53;;;538.50;2406.40;;;;;;4959545;29;20444;-78
2022/07/17 05:11:04;;;;;;;12.18;5.28;;;563.30;2432.00;;;;;;4959208;29;20039;-76
2022/07/17 05:13:30;;;;;;;9.80;5.18;;;563.40;2432.00;;;;;;4959612;29;20031;-78
2022/07/17 05:15:56;;;;;;;7.68;5.50;;;563.60;2432.00;;;;;;4959487;29;20091;-78
2022/07/17 05:18:21;;;;;;;12.05;5.18;;;563.60;2432.00;;;;;;4959174;29;20448;-81
2022/07/17 05:20:47;;;;;;;10.35;5.22;;;563.60;2432.00;;;;;;4959127;29;20030;-78
2022/07/17 05:23:13;;;;;;;8.43;5.35;;;563.50;2432.00;;;;;;4959377;29;20031;-77
2022/07/17 05:25:39;;;;;;;8.57;4.68;;;563.60;2432.00;;;;;;4958638;29;20034;-78
2022/07/17 05:28:04;;;;;;;7.65;5.28;;;563.60;2432.00;;;;;;4959000;29;20518;-79
2022/07/17 05:30:30;;;;;;;7.20;5.10;;;563.60;2432.00;;;;;;4957264;29;20035;-78
2022/07/17 05:32:56;;;;;;;9.20;5.03;;;563.60;2432.00;;;;;;4955456;29;20031;-77
2022/07/17 05:35:22;;;;;;;8.98;4.68;;;563.60;2432.00;;;;;;4955586;29;20038;-78
2022/07/17 05:37:48;;;;;;;9.45;4.60;;;563.80;2432.00;;;;;;4955417;29;20030;-80
2022/07/17 05:40:14;;;;;;;8.90;4.75;;;563.90;2432.00;;;;;;4955416;29;20027;-79
2022/07/17 05:42:40;;;;;;;10.25;4.68;;;564.00;2432.00;;;;;;4955402;29;20066;-79
2022/07/17 05:45:07;;;;;;;9.13;4.72;;;564.00;2432.00;;;;;;4955188;29;20058;-76
2022/07/17 05:47:32;;;;;;;14.55;8.50;;;588.80;2432.00;;;;;;4955166;29;20028;-79
2022/07/17 05:49:58;;;;;;;12.25;7.20;;;588.90;2432.00;;;;;;4954667;28;20030;-78
2022/07/17 05:52:24;;;;;;;20.00;13.43;;;588.80;2432.00;;;;;;4954904;29;20031;-82
2022/07/17 05:54:50;;;;;;;10.80;7.28;;;588.90;2432.00;;;;;;4955055;29;20122;-80
2022/07/17 05:57:16;;;;;;;8.07;5.55;;;589.00;2432.00;;;;;;4957368;28;20361;-81
2022/07/17 05:59:42;;;;;;;9.35;5.45;;;589.20;2432.00;;;;;;4958015;28;20023;-77
2022/07/17 06:02:08;;;;;;;6.63;5.15;;;589.30;2432.00;;;;;;4958046;28;20038;-78
2022/07/17 06:04:33;;;;;;;12.75;5.40;;;589.50;2432.00;;;;;;4958210;28;20034;-80
2022/07/17 06:06:59;;;;;;;8.02;4.70;;;589.40;2432.00;;;;;;4975533;28;20037;-81
2022/07/17 06:09:25;;;;;;;7.35;4.60;;;589.60;2432.00;;;;;;4958159;28;20033;-78
2022/07/17 06:11:51;;;;;;;8.68;5.25;;;589.70;2432.00;;;;;;4958072;28;20031;-82
2022/07/17 06:14:17;;;;;;;7.38;4.30;;;614.40;2432.00;;;;;;4957793;28;20027;-78
2022/07/17 06:16:43;;;;;;;7.70;4.05;;;614.50;2432.00;;;;;;4957791;28;20049;-83
2022/07/17 06:19:09;;;;;;;7.45;4.20;;;614.70;2432.00;;;;;;4957867;28;20066;-81
2022/07/17 06:21:35;;;;;;;6.80;4.00;;;;;;;;;;4957573;28;20455;-79
2022/07/17 06:24:01;;;;;;;5.68;3.92;;;;;;;;;;4957707;28;20031;-79
2022/07/17 06:26:27;;;;;;;5.80;4.18;;;;;;;;;;4957979;28;20482;-78
2022/07/17 06:28:53;;;;;;;8.20;4.43;;;;;;;;;;4957605;28;20055;-85
2022/07/17 06:31:21;;;;;;;7.90;4.40;;;;;;;;;;4957920;28;20031;-82
2022/07/17 06:33:47;;;;;;;6.93;4.40;;;;;;;;;;4957937;28;20027;-83
2022/07/17 06:36:13;;;;;;;9.75;5.57;;;640.40;2278.40;;;;;;4957741;28;20579;-84
2022/07/17 06:38:39;;;;;;;7.88;3.85;;;640.40;2252.80;;;;;;4957874;28;20139;-82
2022/07/17 06:41:05;;;;;;;9.38;5.78;;;;;;;;;;4957570;28;20039;-84
2022/07/17 06:43:31;;;;;;;7.80;4.63;;;;;;;;;;4957880;28;20027;-82
2022/07/17 06:45:57;;;;;;;5.78;4.43;;;;;;;;;;4957857;28;20027;-84
2022/07/17 06:48:24;;;;;;;9.65;3.88;;;;;;;;;;4958246;28;20109;-85
2022/07/17 06:50:50;;;;;;;7.00;3.95;;;;;;;;;;4975352;28;20455;-82
2022/07/17 06:53:15;;;;;;;6.15;3.45;;;665.90;2201.60;;;;;;4960637;28;20124;-79
2022/07/17 06:55:42;;;;;;;7.10;3.45;;;665.90;2176.00;;;;;;4962847;28;20458;-81
2022/07/17 06:58:08;;;;;;;7.97;3.35;;;665.80;2201.60;;;;;;4955889;29;20051;-83
2022/07/17 07:00:33;;;;;;;5.82;4.20;;;666.00;2201.60;;;;;;4956037;28;20031;-81
2022/07/17 07:02:59;;;;;;;5.50;3.38;;;666.20;2150.40;;;;;;4958015;29;20039;-78
2022/07/17 07:05:25;;;;;;;4.97;3.17;;;666.30;2124.80;;;;;;4958337;29;20032;-81
2022/07/17 07:07:51;;;;;;;7.00;3.83;;;;;;;;;;4958067;29;20039;-80
2022/07/17 07:10:18;;;;;;;8.55;4.07;;;;;;;;;;4957438;29;20051;-82
2022/07/17 07:12:44;;;;;;;5.72;3.33;;;;;;;;;;4958119;29;20383;-81
2022/07/17 07:15:10;;;;;;;7.28;4.03;;;691.40;2048.00;;;;;;4957996;29;20031;-80
2022/07/17 07:17:36;;;;;;;5.30;3.67;;;;;;;;;;4957585;29;20023;-78
2022/07/17 07:20:06;;;;;;;8.05;4.10;;;691.80;2048.00;;;;;;4958096;29;20519;-79
2022/07/17 07:22:32;;;;;;;10.65;3.53;;;691.70;2048.00;;;;;;4957868;29;20509;-81
2022/07/17 07:24:58;;;;;;;7.03;3.35;;;;;;;;;;4957480;29;20031;-80
2022/07/17 07:27:24;;;;;;;6.75;3.40;;;692.10;2022.40;;;;;;4961788;29;20024;-77
2022/07/17 07:29:50;;;;;;;5.30;3.10;;;692.10;1996.80;;;;;;4962505;29;20058;-77
2022/07/17 07:32:16;;;;;;;5.85;3.80;;;716.80;2022.40;;;;;;4962583;29;20066;-80
2022/07/17 07:34:42;;;;;;;6.13;3.15;;;716.90;2022.40;;;;;;4964650;29;20027;-77
2022/07/17 07:37:08;;;;;;;6.18;3.13;;;717.10;1996.80;;;;;;4968250;29;20027;-75
2022/07/17 07:39:34;;;;;;;5.72;3.60;;;717.10;1996.80;;;;;;4967304;29;20027;-75
2022/07/17 07:42:00;;;;;;;5.32;3.38;;;717.30;1971.20;;;;;;4964966;29;20027;-81
2022/07/17 07:44:26;;;;;;;4.95;3.20;;;717.40;1971.20;;;;;;4959889;29;20031;-79
2022/07/17 07:46:52;;;;;;;5.20;3.03;;;717.40;1971.20;;;;;;4959514;29;20384;-79
2022/07/17 07:49:17;;;;;;;7.28;3.35;;;717.40;1971.20;;;;;;4958942;29;20030;-78
2022/07/17 07:51:44;;;;;;;7.05;3.42;;;717.40;1971.20;;;;;;4957885;29;20082;-79
2022/07/17 07:54:10;;;;;;;6.68;3.10;;;717.50;1971.20;;;;;;4959086;29;20030;-77
2022/07/17 07:56:36;;;;;;;4.95;3.20;;;717.60;1945.60;;;;;;4960042;29;20023;-80
2022/07/17 07:59:02;;;;;;;5.40;3.38;;;717.20;1945.60;;;;;;4958626;29;20077;-81
2022/07/17 08:01:29;;;;;;;5.78;3.15;;;717.60;1945.60;;;;;;4958725;29;20118;-81
2022/07/17 08:03:55;;;;;;;7.68;3.10;;;742.40;1945.60;;;;;;4957801;29;20035;-78
2022/07/17 08:06:21;;;;;;;6.80;3.60;;;742.40;1945.60;;;;;;4958137;29;20042;-79
2022/07/17 08:08:47;;;;;;;7.78;3.45;;;742.70;1945.60;;;;;;4958337;29;20027;-79
2022/07/17 08:11:13;;;;;;;7.38;3.10;;;742.80;1945.60;;;;;;4957297;28;20035;-78
2022/07/17 08:13:40;;;;;;;6.78;3.17;;;742.80;1920.00;;;;;;4956294;29;20023;-81
2022/07/17 08:16:06;;;;;;;5.70;2.97;;;742.80;1945.60;;;;;;4957222;29;20452;-80
2022/07/17 08:18:32;;;;;;;6.32;3.88;;;742.90;1945.60;;;;;;4956160;29;20031;-79
2022/07/17 08:20:58;;;;;;;8.20;3.33;;;743.00;1945.60;;;;;;4956662;29;20448;-80
2022/07/17 08:23:24;;;;;;;10.68;4.40;;;743.20;1920.00;;;;;;4956833;29;20118;-82
2022/07/17 08:25:50;;;;;;;5.43;3.67;;;743.20;1920.00;;;;;;4956634;29;20031;-80
2022/07/17 08:28:16;;;;;;;6.68;3.15;;;;;;;;;;4956746;29;20036;-80
2022/07/17 08:30:42;;;;;;;5.93;3.45;;;;;;;;;;4956873;29;20526;-82
2022/07/17 08:33:09;;;;;;;4.75;3.30;;;;;;;;;;4956402;29;20031;-81
2022/07/17 08:35:36;;;;;;;5.95;3.65;;;;;;;;;;4956514;29;20086;-81
2022/07/17 08:38:02;;;;;;;4.28;3.15;;;;;;;;;;4956621;29;20020;-82
2022/07/17 08:40:29;;;;;;;5.43;3.28;;;;;;;;;;4956287;29;20046;-83
2022/07/17 08:42:56;;;;;;;6.43;3.92;;;;;;;;;;4956844;29;20031;-82
2022/07/17 08:45:23;;;;;;;8.10;3.15;;;;;;;;;;4956965;29;20038;-83
2022/07/17 08:47:50;;;;;;;4.95;3.70;;;;;;;;;;4956413;29;20420;-81
2022/07/17 08:50:23;;;;;;;6.80;3.83;;;768.20;1868.80;;;;;;4956848;29;20045;-82
2022/07/17 08:52:49;;;;;;;5.43;3.38;;;768.10;1868.80;;;;;;4956347;29;20035;-82
2022/07/17 08:55:15;;;;;;;5.18;4.00;;;768.50;1868.80;;;;;;4955732;29;20035;-81
2022/07/17 08:57:43;;;;;;;6.47;3.60;;;;;;;;;;4955295;29;20051;-82
2022/07/17 09:00:10;;;;;;;6.97;4.05;;;;;;;;;;4955280;29;20391;-80
2022/07/17 09:02:37;;;;;;;9.95;6.05;;;;;;;;;;4955716;29;20058;-77
2022/07/17 09:05:03;;;;;;;10.38;4.97;;;;;;;;;;4956257;29;20460;-81
2022/07/17 09:07:30;;;;;;;12.52;8.23;;;;;;;;;;4955589;29;20118;-86
2022/07/17 09:09:56;;;;;;;7.32;4.40;;;;;;;;;;4955857;29;20019;-84
2022/07/17 09:12:27;;;;;;;5.93;3.38;;;;;;;;;;4955285;29;20471;-86
2022/07/17 09:14:53;;;;;;;9.10;3.58;;;768.60;1817.60;;;;;;4955944;29;20027;-84
2022/07/17 09:17:19;;;;;;;5.05;3.15;;;768.50;1817.60;;;;;;4955626;29;20023;-82
2022/07/17 09:19:45;;;;;;;6.05;3.03;;;768.40;1766.40;;;;;;4954722;29;20027;-79
2022/07/17 09:22:13;;;;;;;8.73;6.63;;;768.80;1817.60;;;;;;4954771;29;20031;-80
2022/07/17 09:24:53;;;;;;;9.18;3.10;;;793.70;1792.00;;;;;;4954712;28;20035;-78
2022/07/17 09:27:32;;;;;;;9.00;3.40;;;793.70;1766.40;;;;;;4954785;29;20468;-82
2022/07/17 09:30:03;;;;;;;14.02;3.72;;;793.70;1766.40;;;;;;4955054;29;20034;-83
2022/07/17 09:32:33;;;;;;;4.60;3.17;;;793.90;1766.40;;;;;;4954736;29;20031;-82
2022/07/17 09:35:01;;;;;;;6.53;3.08;;;794.00;1740.80;;;;;;4955103;29;20024;-83
2022/07/17 09:37:28;;;;;;;6.30;2.72;;;794.10;1715.20;;;;;;4955359;29;20027;-84
2022/07/17 09:39:55;;;;;;;6.63;3.40;;;794.20;1715.20;;;;;;4955007;29;20051;-84
2022/07/17 09:42:27;;;;;;;4.70;3.05;;;794.20;1689.60;;;;;;4956135;29;20039;-84
2022/07/17 09:44:56;;;;;;;4.85;3.40;;;;;;;;;;4955736;29;20027;-83
2022/07/17 09:47:24;;;;;;;7.45;3.05;;;;;;;;;;4955614;29;20023;-81
2022/07/17 09:49:53;;;;;;;4.85;2.63;;;819.70;1664.00;;;;;;4955928;29;20110;-84
2022/07/17 09:52:20;;;;;;;6.10;2.70;;;819.70;1638.40;;;;;;4955714;29;20380;-83
2022/07/17 09:54:48;;;;;;;7.30;2.65;;;819.50;1664.00;;;;;;4956277;29;20054;-83
2022/07/17 09:57:15;;;;;;;6.55;2.67;;;;;;;;;;4957507;28;20027;-82
2022/07/17 09:59:41;;;;;;;8.15;2.90;;;;;;;;;;4959404;28;20070;-84
2022/07/17 10:02:09;;;;;;;8.93;3.17;;;819.90;1638.40;;;;;;4958906;28;20034;-82
2022/07/17 10:04:35;;;;;;;11.73;3.20;;;819.60;1612.80;;;;;;4972130;28;20066;-82
2022/07/17 10:07:02;;;;;;;6.13;2.95;;;794.20;1638.40;;;;;;4974178;28;20026;-85
2022/07/17 10:09:29;;;;;;;7.40;2.70;;;819.70;1612.80;;;;;;4959188;28;20026;-85
2022/07/17 10:11:56;;;;;;;8.57;2.75;;;819.60;1612.80;;;;;;4959553;28;20034;-85
2022/07/17 10:14:22;;;;;;;13.07;3.38;;;819.80;1612.80;;;;;;4958766;28;20081;-82
2022/07/17 10:16:50;;;;;;;8.40;3.50;;;819.80;1587.20;;;;;;4947295;28;20031;-86
2022/07/17 10:19:23;;;;;;;8.02;3.58;;;820.10;1587.20;;;;;;4958043;28;20385;-84
2022/07/17 10:21:54;;;;;;;9.75;4.30;;;820.10;1536.00;;;;;;4955032;28;20023;-85
2022/07/17 10:24:21;;;;;;;8.70;3.92;;;844.90;1587.20;;;;;;4957653;28;20038;-85
2022/07/17 10:26:49;;;;;;;5.40;2.72;;;844.90;1587.20;;;;;;4956756;28;20030;-86
2022/07/17 10:29:35;;;;;;;6.70;3.63;;;844.90;1587.20;;;;;;4957068;28;20038;-84
2022/07/17 10:32:07;;;;;;;5.50;2.92;;;845.10;1561.60;;;;;;4957012;28;20039;-84
2022/07/17 10:34:45;;;;;;;7.50;3.17;;;845.20;1561.60;;;;;;4956437;28;20077;-87
2022/07/17 10:37:38;;;;;;;6.03;3.72;;;845.30;1561.60;;;;;;4947462;28;20035;-85
2022/07/17 10:40:16;;;;;;;7.97;4.50;;;845.40;1536.00;;;;;;4953002;28;20038;-83
2022/07/17 10:42:46;;;;;;;7.97;3.97;;;845.50;1536.00;;;;;;4951956;28;20034;-83
2022/07/17 10:45:19;;;;;;;6.78;3.85;;;845.60;1536.00;;;;;;4951714;28;20051;-85
2022/07/17 10:47:46;;;;;;;7.18;3.30;;;845.60;1536.00;;;;;;4955160;28;20122;-82
2022/07/17 10:50:14;;;;;;;6.25;3.10;;;845.50;1536.00;;;;;;4938602;28;20422;-83
2022/07/17 10:52:40;;;;;;;5.57;3.28;;;845.20;1561.60;;;;;;4956857;28;20046;-85
2022/07/17 10:55:18;;;;;;;6.45;3.22;;;845.70;1510.40;;;;;;4957105;28;20073;-84
2022/07/17 10:57:44;;;;;;;6.65;3.17;;;870.40;1536.00;;;;;;4949332;29;20063;-80
2022/07/17 11:00:13;;;;;;;6.72;3.03;;;870.50;1536.00;;;;;;4943550;29;20114;-83
2022/07/17 11:02:39;;;;;;;6.60;2.88;;;;;;;;;;4937583;29;20384;-83
2022/07/17 11:05:08;;;;;;;4.65;2.72;;;870.80;1510.40;;;;;;4934866;29;20451;-84
2022/07/17 11:07:34;;;;;;;5.40;2.83;;;870.70;1484.80;;;;;;4953316;29;20054;-86
2022/07/17 11:10:02;;;;;;;6.95;2.40;;;870.60;1484.80;;;;;;4946190;29;20031;-86
2022/07/17 11:12:34;;;;;;;6.88;2.67;;;870.70;1484.80;;;;;;4954552;29;20082;-86
2022/07/17 11:15:04;;;;;;;9.20;3.30;;;870.50;1484.80;;;;;;4950482;29;20031;-82
2022/07/17 11:17:30;;;;;;;8.65;3.38;;;870.60;1510.40;;;;;;4944359;29;20492;-84
2022/07/17 11:20:04;;;;;;;7.90;2.40;;;870.60;1484.80;;;;;;4938385;29;20507;-85
2022/07/17 11:22:30;;;;;;;7.50;3.53;;;870.80;1484.80;;;;;;4951931;29;20027;-85
2022/07/17 11:24:58;;;;;;;5.80;3.00;;;845.60;1459.20;;;;;;4946944;29;20031;-85
2022/07/17 11:27:29;;;;;;;5.18;3.10;;;871.00;1459.20;;;;;;4948458;29;20447;-85
2022/07/17 11:29:58;;;;;;;4.47;2.60;;;870.90;1459.20;;;;;;4952154;29;20042;-84
2022/07/17 11:32:36;;;;;;;6.35;2.30;;;870.70;1484.80;;;;;;4952073;29;20031;-88
2022/07/17 11:35:13;;;;;;;6.78;2.78;;;870.90;1459.20;;;;;;4948765;29;20039;-84
2022/07/17 11:37:40;;;;;;;4.60;2.47;;;870.80;1459.20;;;;;;4951051;29;20166;-84
2022/07/17 11:40:06;;;;;;;6.65;2.35;;;870.70;1459.20;;;;;;4944295;29;20111;-85
2022/07/17 11:42:32;;;;;;;7.25;2.90;;;870.90;1459.20;;;;;;4950592;29;20035;-85
2022/07/17 11:44:59;;;;;;;5.13;2.55;;;871.10;1459.20;;;;;;4936990;29;20052;-88
2022/07/17 11:47:26;;;;;;;5.47;3.20;;;;;;;;;;4940338;28;20051;-87
2022/07/17 11:50:08;;;;;;;5.32;3.70;;;896.00;1433.60;;;;;;4943448;29;20083;-84
2022/07/17 11:52:48;;;;;;;5.85;3.22;;;871.30;1433.60;;;;;;4956829;29;20063;-84
2022/07/17 11:55:14;;;;;;;5.97;2.38;;;871.30;1433.60;;;;;;4953577;29;20126;-84
2022/07/17 11:57:50;;;;;;;5.75;2.60;;;871.30;1433.60;;;;;;4940045;29;20591;-83
2022/07/17 12:00:19;;;;;;;5.20;2.67;;;871.30;1433.60;;;;;;4949979;29;20495;-83
2022/07/17 12:02:46;;;;;;;5.20;2.20;;;871.30;1433.60;;;;;;4943651;29;20028;-83
2022/07/17 12:05:12;;;;;;;5.22;2.78;;;871.10;1433.60;;;;;;4947406;29;20031;-82
2022/07/17 12:07:48;;;;;;;4.30;2.50;;;871.20;1433.60;;;;;;4950252;29;20035;-84
2022/07/17 12:10:22;;;;;;;4.53;2.50;;;871.00;1433.60;;;;;;4947248;29;20506;-84
2022/07/17 12:12:56;;;;;;;5.88;2.40;;;871.30;1459.20;;;;;;4940556;29;20527;-83
2022/07/17 12:15:36;;;;;;;8.65;2.53;;;871.30;1433.60;;;;;;4946264;29;20050;-84
2022/07/17 12:18:04;;;;;;;6.10;2.33;;;871.30;1408.00;;;;;;4955678;29;20100;-86
2022/07/17 12:20:48;;;;;;;6.22;2.70;;;896.00;1408.00;;;;;;4954461;29;20030;-83
2022/07/17 12:23:26;;;;;;;8.85;6.95;;;896.10;1408.00;;;;;;4958240;29;20024;-84
2022/07/17 12:26:07;;;;;;;8.88;4.60;;;896.30;1408.00;;;;;;4956665;29;20052;-83
2022/07/17 12:28:34;;;;;;;6.75;3.70;;;896.10;1408.00;;;;;;4951259;29;20480;-81
2022/07/17 12:31:01;;;;;;;5.75;2.80;;;871.30;1382.40;;;;;;4948681;29;20027;-83